AKU701 NZAA-NZWN
Flight info
| Callsign | AKU701 |
|---|---|
| Flight time | 0h 47m |
| Altitude | 34000 |
| Route | IGBAT Y506 TPAPA |
| Aircraft | B77W/H-SDE1E2E3FGHIJ2J3J4J5M1RWXY/LB1D1 |
Departure
| Time | 2026-05-06 22:39 |
|---|---|
| Airport | Auckland International Airport (NZAA) |
Arrival
| Time | 2026-05-06 23:27 |
|---|---|
| Airport | Wellington International Airport (NZWN) |
| Time | Latitude | Longitude | Altitude | Speed | Heading |
|---|---|---|---|---|---|
| 2026-05-06 22:22 | -37.00814 | 174.78467 | 30 ft | 0 kts | 103° |
| 2026-05-06 22:27 | -37.00811 | 174.78454 | 30 ft | 2 kts | 101° |
| 2026-05-06 22:27 | -37.00808 | 174.78434 | 29 ft | 2 kts | 102° |
| 2026-05-06 22:27 | -37.00805 | 174.78414 | 30 ft | 2 kts | 101° |
| 2026-05-06 22:28 | -37.00801 | 174.78394 | 30 ft | 2 kts | 111° |
| 2026-05-06 22:28 | -37.00790 | 174.78381 | 27 ft | 2 kts | 174° |
| 2026-05-06 22:28 | -37.00773 | 174.78382 | 29 ft | 2 kts | 191° |
| 2026-05-06 22:28 | -37.00757 | 174.78387 | 29 ft | 2 kts | 197° |
| 2026-05-06 22:29 | -37.00741 | 174.78393 | 29 ft | 2 kts | 201° |
| 2026-05-06 22:29 | -37.00733 | 174.78398 | 29 ft | 1 kts | 203° |
| 2026-05-06 22:29 | -37.00732 | 174.78398 | 29 ft | 0 kts | 204° |
| 2026-05-06 22:30 | -37.00749 | 174.78390 | 29 ft | 10 kts | 199° |
| 2026-05-06 22:31 | -37.00846 | 174.78372 | 30 ft | 15 kts | 186° |
| 2026-05-06 22:31 | -37.00949 | 174.78366 | 30 ft | 15 kts | 171° |
| 2026-05-06 22:31 | -37.01062 | 174.78355 | 30 ft | 18 kts | 213° |
| 2026-05-06 22:31 | -37.01123 | 174.78225 | 30 ft | 18 kts | 250° |
| 2026-05-06 22:32 | -37.01162 | 174.78080 | 30 ft | 18 kts | 251° |
| 2026-05-06 22:32 | -37.01202 | 174.77936 | 30 ft | 18 kts | 251° |
| 2026-05-06 22:32 | -37.01242 | 174.77792 | 30 ft | 18 kts | 251° |
| 2026-05-06 22:32 | -37.01284 | 174.77645 | 30 ft | 19 kts | 250° |
| 2026-05-06 22:33 | -37.01327 | 174.77486 | 30 ft | 19 kts | 252° |
| 2026-05-06 22:33 | -37.01371 | 174.77327 | 30 ft | 19 kts | 251° |
| 2026-05-06 22:33 | -37.01404 | 174.77205 | 30 ft | 8 kts | 251° |
| 2026-05-06 22:33 | -37.01408 | 174.77189 | 30 ft | 0 kts | 251° |
| 2026-05-06 22:34 | -37.01408 | 174.77188 | 30 ft | 1 kts | 251° |
| 2026-05-06 22:34 | -37.01423 | 174.77148 | 30 ft | 6 kts | 236° |
| 2026-05-06 22:34 | -37.01435 | 174.77133 | 30 ft | 0 kts | 222° |
| 2026-05-06 22:35 | -37.01456 | 174.77116 | 30 ft | 10 kts | 206° |
| 2026-05-06 22:35 | -37.01472 | 174.77109 | 30 ft | 0 kts | 196° |
| 2026-05-06 22:36 | -37.01559 | 174.77087 | 31 ft | 17 kts | 182° |
| 2026-05-06 22:36 | -37.01611 | 174.77146 | 31 ft | 8 kts | 83° |
| 2026-05-06 22:37 | -37.01605 | 174.77175 | 31 ft | 0 kts | 70° |
| 2026-05-06 22:38 | -37.01532 | 174.77440 | 31 ft | 88 kts | 71° |
| 2026-05-06 22:38 | -37.01450 | 174.77728 | 31 ft | 128 kts | 70° |
| 2026-05-06 22:39 | -37.01057 | 174.79089 | 585 ft | 189 kts | 69° |
| 2026-05-06 22:39 | -37.00580 | 174.80659 | 2290 ft | 202 kts | 67° |
| 2026-05-06 22:39 | -37.00133 | 174.82369 | 3617 ft | 211 kts | 69° |
| 2026-05-06 22:39 | -36.99810 | 174.83654 | 4288 ft | 215 kts | 69° |
| 2026-05-06 22:40 | -36.99341 | 174.85429 | 5309 ft | 215 kts | 68° |
| 2026-05-06 22:40 | -36.98845 | 174.87227 | 6150 ft | 221 kts | 67° |
| 2026-05-06 22:40 | -36.98355 | 174.89083 | 6950 ft | 228 kts | 75° |
| 2026-05-06 22:40 | -36.98310 | 174.90414 | 7401 ft | 240 kts | 99° |
| 2026-05-06 22:41 | -37.00692 | 174.93284 | 8894 ft | 259 kts | 168° |
| 2026-05-06 22:41 | -37.02480 | 174.93468 | 9788 ft | 261 kts | 188° |
| 2026-05-06 22:41 | -37.04187 | 174.92715 | 10539 ft | 262 kts | 219° |
| 2026-05-06 22:42 | -37.05564 | 174.90385 | 11598 ft | 252 kts | 253° |
| 2026-05-06 22:42 | -37.05968 | 174.88958 | 11910 ft | 266 kts | 254° |
| 2026-05-06 22:42 | -37.06813 | 174.85830 | 12244 ft | 307 kts | 254° |
| 2026-05-06 22:42 | -37.07533 | 174.83170 | 12492 ft | 339 kts | 253° |
| 2026-05-06 22:43 | -37.08062 | 174.81230 | 12640 ft | 360 kts | 253° |
| 2026-05-06 22:43 | -37.08907 | 174.78155 | 13147 ft | 381 kts | 253° |
| 2026-05-06 22:43 | -37.09842 | 174.75018 | 13984 ft | 388 kts | 245° |
| 2026-05-06 22:43 | -37.11497 | 174.72283 | 14746 ft | 402 kts | 223° |
| 2026-05-06 22:44 | -37.13851 | 174.70378 | 15819 ft | 407 kts | 206° |
| 2026-05-06 22:44 | -37.16567 | 174.69310 | 16837 ft | 411 kts | 191° |
| 2026-05-06 22:44 | -37.19407 | 174.68843 | 17630 ft | 421 kts | 188° |
| 2026-05-06 22:44 | -37.22354 | 174.68489 | 18504 ft | 428 kts | 187° |
| 2026-05-06 22:45 | -37.25346 | 174.68158 | 19373 ft | 432 kts | 187° |
| 2026-05-06 22:45 | -37.26900 | 174.67980 | 19873 ft | 432 kts | 187° |
| 2026-05-06 22:45 | -37.29890 | 174.67621 | 20850 ft | 432 kts | 187° |
| 2026-05-06 22:45 | -37.32889 | 174.67235 | 21738 ft | 435 kts | 188° |
| 2026-05-06 22:46 | -37.35921 | 174.66826 | 22562 ft | 439 kts | 188° |
| 2026-05-06 22:46 | -37.38969 | 174.66405 | 23376 ft | 442 kts | 188° |
| 2026-05-06 22:46 | -37.42041 | 174.65977 | 24128 ft | 445 kts | 188° |
| 2026-05-06 22:46 | -37.45091 | 174.65551 | 24768 ft | 449 kts | 188° |
| 2026-05-06 22:47 | -37.48200 | 174.65118 | 25426 ft | 451 kts | 188° |
| 2026-05-06 22:47 | -37.51336 | 174.64682 | 26082 ft | 454 kts | 188° |
| 2026-05-06 22:47 | -37.54485 | 174.64244 | 26707 ft | 457 kts | 188° |
| 2026-05-06 22:47 | -37.57657 | 174.63783 | 27301 ft | 460 kts | 190° |
| 2026-05-06 22:48 | -37.60807 | 174.63029 | 27869 ft | 462 kts | 194° |
| 2026-05-06 22:48 | -37.63934 | 174.62037 | 28455 ft | 464 kts | 197° |
| 2026-05-06 22:48 | -37.67054 | 174.60966 | 28996 ft | 467 kts | 197° |
| 2026-05-06 22:48 | -37.70201 | 174.59891 | 29492 ft | 470 kts | 197° |
| 2026-05-06 22:49 | -37.73371 | 174.58842 | 29969 ft | 472 kts | 196° |
| 2026-05-06 22:49 | -37.76566 | 174.57817 | 30410 ft | 475 kts | 195° |
| 2026-05-06 22:49 | -37.79773 | 174.56809 | 30839 ft | 475 kts | 195° |
| 2026-05-06 22:49 | -37.82980 | 174.55810 | 31372 ft | 473 kts | 195° |
| 2026-05-06 22:50 | -37.86164 | 174.54819 | 31957 ft | 469 kts | 195° |
| 2026-05-06 22:50 | -37.89285 | 174.53844 | 32529 ft | 466 kts | 195° |
| 2026-05-06 22:50 | -37.92428 | 174.52859 | 33042 ft | 464 kts | 196° |
| 2026-05-06 22:50 | -37.95554 | 174.51877 | 33531 ft | 463 kts | 196° |
| 2026-05-06 22:51 | -37.98686 | 174.50941 | 34004 ft | 462 kts | 193° |
| 2026-05-06 22:51 | -38.01875 | 174.50304 | 34307 ft | 465 kts | 189° |
| 2026-05-06 22:51 | -38.05091 | 174.49868 | 34291 ft | 464 kts | 188° |
| 2026-05-06 22:52 | -38.11524 | 174.49163 | 34296 ft | 463 kts | 187° |
| 2026-05-06 22:52 | -38.17935 | 174.48387 | 34297 ft | 463 kts | 188° |
| 2026-05-06 22:53 | -38.24338 | 174.47521 | 34297 ft | 463 kts | 188° |
| 2026-05-06 22:53 | -38.30743 | 174.46624 | 34291 ft | 463 kts | 188° |
| 2026-05-06 22:54 | -38.37099 | 174.45731 | 34292 ft | 463 kts | 188° |
| 2026-05-06 22:54 | -38.43508 | 174.44833 | 34287 ft | 463 kts | 188° |
| 2026-05-06 22:55 | -38.49907 | 174.43938 | 34290 ft | 462 kts | 188° |
| 2026-05-06 22:55 | -38.56306 | 174.43040 | 34290 ft | 462 kts | 188° |
| 2026-05-06 22:56 | -38.62703 | 174.42142 | 34288 ft | 462 kts | 188° |
| 2026-05-06 22:56 | -38.68880 | 174.41272 | 34286 ft | 463 kts | 188° |
| 2026-05-06 22:57 | -38.75246 | 174.40374 | 34280 ft | 463 kts | 188° |
| 2026-05-06 22:57 | -38.81655 | 174.39469 | 34274 ft | 463 kts | 188° |
| 2026-05-06 22:58 | -38.88062 | 174.38562 | 34287 ft | 463 kts | 188° |
| 2026-05-06 22:58 | -38.94460 | 174.37655 | 34287 ft | 462 kts | 188° |
| 2026-05-06 22:59 | -39.00855 | 174.36747 | 34284 ft | 462 kts | 188° |
| 2026-05-06 22:59 | -39.07261 | 174.36033 | 34275 ft | 464 kts | 183° |
| 2026-05-06 23:00 | -39.13742 | 174.36337 | 34277 ft | 466 kts | 180° |
| 2026-05-06 23:00 | -39.20171 | 174.36765 | 34265 ft | 466 kts | 180° |
| 2026-05-06 23:01 | -39.26649 | 174.37171 | 34260 ft | 466 kts | 180° |
| 2026-05-06 23:01 | -39.33117 | 174.37550 | 34267 ft | 466 kts | 180° |
| 2026-05-06 23:02 | -39.39602 | 174.37921 | 34259 ft | 466 kts | 180° |
| 2026-05-06 23:02 | -39.46085 | 174.38293 | 34255 ft | 467 kts | 180° |
| 2026-05-06 23:03 | -39.52577 | 174.38667 | 34244 ft | 468 kts | 180° |
| 2026-05-06 23:03 | -39.59082 | 174.39043 | 34246 ft | 468 kts | 180° |
| 2026-05-06 23:04 | -39.65594 | 174.39421 | 34236 ft | 468 kts | 180° |
| 2026-05-06 23:04 | -39.72116 | 174.39799 | 34240 ft | 469 kts | 180° |
| 2026-05-06 23:05 | -39.78602 | 174.40176 | 34234 ft | 470 kts | 180° |
| 2026-05-06 23:05 | -39.85146 | 174.40557 | 34232 ft | 471 kts | 180° |
| 2026-05-06 23:06 | -39.91693 | 174.40940 | 34225 ft | 470 kts | 180° |
| 2026-05-06 23:06 | -39.94939 | 174.41131 | 34115 ft | 465 kts | 180° |
| 2026-05-06 23:06 | -39.98186 | 174.41321 | 33302 ft | 468 kts | 180° |
| 2026-05-06 23:06 | -40.01439 | 174.41511 | 32469 ft | 467 kts | 180° |
| 2026-05-06 23:07 | -40.04693 | 174.41702 | 31508 ft | 468 kts | 180° |
| 2026-05-06 23:07 | -40.07947 | 174.41892 | 30743 ft | 467 kts | 180° |
| 2026-05-06 23:07 | -40.11174 | 174.42083 | 30033 ft | 462 kts | 180° |
| 2026-05-06 23:07 | -40.14381 | 174.42272 | 29271 ft | 459 kts | 180° |
| 2026-05-06 23:08 | -40.17553 | 174.42460 | 28590 ft | 454 kts | 180° |
| 2026-05-06 23:08 | -40.20699 | 174.42645 | 27927 ft | 450 kts | 180° |
| 2026-05-06 23:08 | -40.23814 | 174.42829 | 27280 ft | 446 kts | 180° |
| 2026-05-06 23:08 | -40.26897 | 174.43011 | 26641 ft | 442 kts | 180° |
| 2026-05-06 23:09 | -40.29964 | 174.43192 | 26011 ft | 439 kts | 180° |
| 2026-05-06 23:09 | -40.33015 | 174.43371 | 25391 ft | 437 kts | 179° |
| 2026-05-06 23:09 | -40.36045 | 174.43550 | 24770 ft | 435 kts | 179° |
| 2026-05-06 23:09 | -40.39021 | 174.43726 | 24146 ft | 434 kts | 179° |
| 2026-05-06 23:10 | -40.42036 | 174.43905 | 23456 ft | 433 kts | 179° |
| 2026-05-06 23:10 | -40.45042 | 174.44083 | 22769 ft | 431 kts | 179° |
| 2026-05-06 23:10 | -40.48033 | 174.44261 | 22137 ft | 428 kts | 179° |
| 2026-05-06 23:10 | -40.51003 | 174.44438 | 21523 ft | 426 kts | 179° |
| 2026-05-06 23:11 | -40.53957 | 174.44613 | 20920 ft | 424 kts | 179° |
| 2026-05-06 23:11 | -40.56901 | 174.44788 | 20324 ft | 423 kts | 179° |
| 2026-05-06 23:11 | -40.59839 | 174.44963 | 19741 ft | 422 kts | 179° |
| 2026-05-06 23:11 | -40.62767 | 174.45138 | 19143 ft | 422 kts | 179° |
| 2026-05-06 23:12 | -40.65701 | 174.45313 | 18532 ft | 422 kts | 179° |
| 2026-05-06 23:12 | -40.68635 | 174.45488 | 17843 ft | 422 kts | 179° |
| 2026-05-06 23:12 | -40.71565 | 174.45701 | 17197 ft | 422 kts | 177° |
| 2026-05-06 23:12 | -40.74479 | 174.46135 | 16590 ft | 421 kts | 174° |
| 2026-05-06 23:13 | -40.77368 | 174.46685 | 15976 ft | 419 kts | 173° |
| 2026-05-06 23:13 | -40.80250 | 174.47256 | 15369 ft | 418 kts | 173° |
| 2026-05-06 23:13 | -40.83096 | 174.47806 | 14771 ft | 417 kts | 173° |
| 2026-05-06 23:13 | -40.85963 | 174.48340 | 14171 ft | 415 kts | 174° |
| 2026-05-06 23:14 | -40.88826 | 174.48858 | 13534 ft | 414 kts | 174° |
| 2026-05-06 23:14 | -40.91671 | 174.49366 | 12931 ft | 412 kts | 174° |
| 2026-05-06 23:14 | -40.94453 | 174.49862 | 12222 ft | 395 kts | 174° |
| 2026-05-06 23:14 | -40.97114 | 174.50338 | 11673 ft | 373 kts | 174° |
| 2026-05-06 23:15 | -40.99641 | 174.50790 | 11533 ft | 361 kts | 174° |
| 2026-05-06 23:15 | -41.02096 | 174.51227 | 11362 ft | 351 kts | 174° |
| 2026-05-06 23:15 | -41.04484 | 174.51651 | 11203 ft | 341 kts | 174° |
| 2026-05-06 23:15 | -41.06800 | 174.52063 | 11055 ft | 331 kts | 174° |
| 2026-05-06 23:16 | -41.09066 | 174.52492 | 10795 ft | 327 kts | 173° |
| 2026-05-06 23:16 | -41.11305 | 174.52975 | 10477 ft | 325 kts | 173° |
| 2026-05-06 23:16 | -41.13526 | 174.53461 | 10169 ft | 323 kts | 173° |
| 2026-05-06 23:16 | -41.15740 | 174.53942 | 9847 ft | 320 kts | 173° |
| 2026-05-06 23:17 | -41.17895 | 174.54407 | 9603 ft | 315 kts | 173° |
| 2026-05-06 23:17 | -41.20025 | 174.54867 | 9334 ft | 304 kts | 174° |
| 2026-05-06 23:17 | -41.22098 | 174.55313 | 8723 ft | 295 kts | 174° |
| 2026-05-06 23:17 | -41.24071 | 174.55739 | 8368 ft | 281 kts | 174° |
| 2026-05-06 23:18 | -41.26026 | 174.56158 | 8088 ft | 288 kts | 174° |
| 2026-05-06 23:18 | -41.28028 | 174.56586 | 7779 ft | 293 kts | 175° |
| 2026-05-06 23:18 | -41.30033 | 174.57103 | 7430 ft | 294 kts | 166° |
| 2026-05-06 23:18 | -41.31943 | 174.58114 | 7132 ft | 296 kts | 158° |
| 2026-05-06 23:19 | -41.33806 | 174.59281 | 6822 ft | 296 kts | 158° |
| 2026-05-06 23:19 | -41.35678 | 174.60430 | 6486 ft | 296 kts | 159° |
| 2026-05-06 23:19 | -41.37560 | 174.61547 | 6180 ft | 295 kts | 160° |
| 2026-05-06 23:19 | -41.39423 | 174.62637 | 5862 ft | 289 kts | 160° |
| 2026-05-06 23:20 | -41.41222 | 174.63688 | 5498 ft | 275 kts | 160° |
| 2026-05-06 23:20 | -41.42938 | 174.64686 | 5207 ft | 272 kts | 161° |
| 2026-05-06 23:20 | -41.44674 | 174.65693 | 4916 ft | 273 kts | 161° |
| 2026-05-06 23:20 | -41.46438 | 174.66716 | 4584 ft | 273 kts | 161° |
| 2026-05-06 23:21 | -41.48100 | 174.67843 | 4271 ft | 273 kts | 144° |
| 2026-05-06 23:21 | -41.49242 | 174.69812 | 4060 ft | 267 kts | 109° |
| 2026-05-06 23:21 | -41.49607 | 174.72160 | 3796 ft | 253 kts | 87° |
| 2026-05-06 23:21 | -41.49694 | 174.74473 | 3464 ft | 245 kts | 86° |
| 2026-05-06 23:22 | -41.49770 | 174.76694 | 3168 ft | 235 kts | 81° |
| 2026-05-06 23:22 | -41.49397 | 174.78649 | 3042 ft | 202 kts | 42° |
| 2026-05-06 23:22 | -41.48408 | 174.79714 | 2853 ft | 168 kts | 3° |
| 2026-05-06 23:22 | -41.47290 | 174.79762 | 2678 ft | 160 kts | 351° |
| 2026-05-06 23:23 | -41.46180 | 174.79787 | 2454 ft | 159 kts | 353° |
| 2026-05-06 23:23 | -41.45086 | 174.79855 | 2258 ft | 156 kts | 354° |
| 2026-05-06 23:23 | -41.44004 | 174.79926 | 2043 ft | 154 kts | 355° |
| 2026-05-06 23:23 | -41.42914 | 174.79998 | 1808 ft | 159 kts | 355° |
| 2026-05-06 23:24 | -41.41819 | 174.80073 | 1622 ft | 153 kts | 356° |
| 2026-05-06 23:24 | -41.40795 | 174.80145 | 1390 ft | 140 kts | 355° |
| 2026-05-06 23:24 | -41.39898 | 174.80207 | 1208 ft | 116 kts | 355° |
| 2026-05-06 23:24 | -41.39106 | 174.80257 | 1086 ft | 116 kts | 356° |
| 2026-05-06 23:25 | -41.38308 | 174.80310 | 955 ft | 118 kts | 356° |
| 2026-05-06 23:25 | -41.37493 | 174.80365 | 795 ft | 116 kts | 360° |
| 2026-05-06 23:25 | -41.36671 | 174.80420 | 670 ft | 124 kts | 1° |
| 2026-05-06 23:25 | -41.35812 | 174.80479 | 519 ft | 122 kts | 1° |
| 2026-05-06 23:26 | -41.34962 | 174.80536 | 371 ft | 124 kts | 3° |
| 2026-05-06 23:26 | -41.34079 | 174.80598 | 217 ft | 128 kts | 1° |
| 2026-05-06 23:26 | -41.33244 | 174.80650 | 33 ft | 110 kts | 1° |
| 2026-05-06 23:26 | -41.32675 | 174.80691 | 31 ft | 58 kts | 3° |
| 2026-05-06 23:27 | -41.32333 | 174.80713 | 43 ft | 42 kts | 3° |
| 2026-05-06 23:27 | -41.32075 | 174.80730 | 52 ft | 33 kts | 3° |
| 2026-05-06 23:27 | -41.31982 | 174.80737 | 52 ft | 12 kts | 2° |
| 2026-05-06 23:27 | -41.31901 | 174.80816 | 53 ft | 14 kts | 93° |
| 2026-05-06 23:28 | -41.31982 | 174.80863 | 48 ft | 19 kts | 182° |
| 2026-05-06 23:28 | -41.32141 | 174.80854 | 49 ft | 25 kts | 183° |
| 2026-05-06 23:28 | -41.32316 | 174.80842 | 44 ft | 24 kts | 183° |
| 2026-05-06 23:28 | -41.32496 | 174.80829 | 37 ft | 27 kts | 182° |
| 2026-05-06 23:29 | -41.32625 | 174.80820 | 32 ft | 16 kts | 184° |
| 2026-05-06 23:29 | -41.32701 | 174.80844 | 31 ft | 9 kts | 127° |
| 2026-05-06 23:29 | -41.32714 | 174.80912 | 31 ft | 7 kts | 115° |
| 2026-05-06 23:29 | -41.32744 | 174.80951 | 31 ft | 6 kts | 139° |
| 2026-05-06 23:30 | -41.32756 | 174.80965 | 31 ft | 0 kts | 140° |